createdAt,value
2023-04-11T00:00:09.117Z,21.03
2023-04-11T00:02:40.515Z,28.60
2023-04-11T00:05:09.819Z,27.40
2023-04-11T00:07:38.046Z,22.20
2023-04-11T00:10:08.249Z,25.87
2023-04-11T00:12:36.504Z,25.87
2023-04-11T00:15:05.241Z,26.80
2023-04-11T00:17:37.843Z,30.13
2023-04-11T00:20:08.279Z,23.30
2023-04-11T00:22:36.778Z,23.07
2023-04-11T00:25:05.400Z,26.30
2023-04-11T00:27:33.652Z,26.33
2023-04-11T00:30:02.082Z,27.30
2023-04-11T00:32:30.386Z,32.60
2023-04-11T00:35:00.248Z,32.23
2023-04-11T00:37:28.530Z,24.23
2023-04-11T00:39:57.784Z,29.73
2023-04-11T00:42:26.012Z,28.83
2023-04-11T00:44:54.360Z,23.97
2023-04-11T00:47:22.771Z,22.03
2023-04-11T00:49:51.163Z,30.30
2023-04-11T00:52:21.322Z,23.43
2023-04-11T00:54:49.737Z,23.27
2023-04-11T00:57:18.716Z,20.63
2023-04-11T00:59:48.376Z,22.60
2023-04-11T01:02:18.405Z,20.50
2023-04-11T01:04:47.113Z,20.77
2023-04-11T01:07:16.302Z,19.37
2023-04-11T01:09:47.143Z,23.67
2023-04-11T01:12:17.089Z,18.53
2023-04-11T01:14:47.803Z,18.23
2023-04-11T01:17:17.163Z,21.83
2023-04-11T01:19:45.517Z,16.93
2023-04-11T01:22:15.040Z,21.30
2023-04-11T01:24:44.968Z,20.73
2023-04-11T01:27:13.496Z,18.87
2023-04-11T01:29:41.753Z,18.63
2023-04-11T01:32:10.099Z,18.37
2023-04-11T01:34:42.128Z,16.60
2023-04-11T01:37:10.579Z,17.80
2023-04-11T01:39:39.172Z,22.23
2023-04-11T01:42:10.451Z,19.53
2023-04-11T01:44:39.377Z,20.63
2023-04-11T01:47:07.620Z,18.27
2023-04-11T01:49:35.869Z,19.37
2023-04-11T01:52:04.175Z,13.07
2023-04-11T01:54:32.397Z,24.17
2023-04-11T01:57:01.363Z,19.53
2023-04-11T01:59:31.135Z,16.10
2023-04-11T02:01:59.669Z,20.90
2023-04-11T02:04:28.084Z,21.87
2023-04-11T02:06:56.317Z,24.10
2023-04-11T02:09:24.592Z,17.63
2023-04-11T02:11:53.817Z,26.13
2023-04-11T02:14:22.068Z,23.20
2023-04-11T02:16:55.540Z,23.63
2023-04-11T02:19:26.166Z,19.40
2023-04-11T02:21:54.639Z,21.83
2023-04-11T02:24:22.902Z,17.30
2023-04-11T02:26:51.100Z,19.73
2023-04-11T02:29:19.453Z,19.67
2023-04-11T02:31:50.176Z,19.90
2023-04-11T02:34:20.543Z,19.20
2023-04-11T02:36:49.043Z,27.17
2023-04-11T02:39:17.543Z,22.00
2023-04-11T02:41:45.915Z,20.83
2023-04-11T02:44:14.160Z,27.73
2023-04-11T02:46:44.970Z,23.03
2023-04-11T02:49:13.243Z,16.30
2023-04-11T02:51:43.035Z,20.17
2023-04-11T02:54:11.961Z,24.30
2023-04-11T02:56:40.183Z,22.87
2023-04-11T02:59:08.624Z,18.77
2023-04-11T03:01:38.353Z,20.87
2023-04-11T03:04:07.364Z,20.90
2023-04-11T03:06:46.214Z,23.33
2023-04-11T03:09:15.188Z,24.20
2023-04-11T03:11:46.827Z,23.40
2023-04-11T03:14:16.504Z,21.33
2023-04-11T03:16:44.906Z,21.60
2023-04-11T03:19:13.455Z,26.23
2023-04-11T03:21:41.800Z,21.00
2023-04-11T03:24:12.657Z,22.27
2023-04-11T03:26:42.342Z,25.63
2023-04-11T03:29:14.090Z,19.70
2023-04-11T03:31:55.953Z,22.00
2023-04-11T03:34:26.112Z,19.17
2023-04-11T03:36:55.941Z,21.07
2023-04-11T03:39:26.404Z,14.83
2023-04-11T03:41:55.140Z,19.10
2023-04-11T03:44:23.443Z,23.27
2023-04-11T03:46:52.571Z,17.77
2023-04-11T03:49:21.036Z,18.13
2023-04-11T03:51:56.048Z,19.50
2023-04-11T03:54:27.703Z,20.37
2023-04-11T03:56:57.268Z,13.00
2023-04-11T03:59:27.062Z,18.00
2023-04-11T04:02:01.087Z,17.30
2023-04-11T04:04:33.981Z,16.80
2023-04-11T04:07:15.127Z,15.80
2023-04-11T04:09:46.941Z,18.30
2023-04-11T04:12:15.309Z,16.17
2023-04-11T04:15:02.965Z,15.20
2023-04-11T04:17:32.209Z,18.70
2023-04-11T04:20:01.838Z,17.83
2023-04-11T04:22:31.228Z,18.70
2023-04-11T04:25:03.936Z,11.63
2023-04-11T04:27:34.266Z,14.17
2023-04-11T04:30:04.457Z,14.90
2023-04-11T04:32:54.965Z,14.43
2023-04-11T04:35:26.278Z,17.40
2023-04-11T04:37:55.271Z,12.33
2023-04-11T04:40:42.077Z,14.07
2023-04-11T04:43:18.475Z,12.23
2023-04-11T04:46:00.141Z,13.57
2023-04-11T04:48:35.292Z,11.13
2023-04-11T04:51:04.722Z,14.30
2023-04-11T04:53:38.830Z,14.47
2023-04-11T04:56:11.049Z,12.07
2023-04-11T04:58:47.329Z,19.00
2023-04-11T05:01:17.700Z,15.30
2023-04-11T05:03:50.798Z,11.53
2023-04-11T05:06:30.190Z,15.40
2023-04-11T05:09:00.135Z,12.23
2023-04-11T05:11:30.357Z,10.43
2023-04-11T05:13:58.697Z,10.97
2023-04-11T05:16:28.830Z,8.27
2023-04-11T05:18:58.797Z,10.30
2023-04-11T05:21:27.664Z,11.40
2023-04-11T05:23:56.597Z,10.33
2023-04-11T05:26:25.890Z,12.17
2023-04-11T05:28:55.535Z,12.10
2023-04-11T05:31:28.799Z,10.77
2023-04-11T05:33:58.808Z,12.40
2023-04-11T05:36:28.884Z,14.33
2023-04-11T05:38:57.149Z,9.53
2023-04-11T05:41:25.453Z,12.07
2023-04-11T05:43:55.402Z,9.80
2023-04-11T05:46:23.836Z,12.07
2023-04-11T05:48:52.115Z,10.60
2023-04-11T05:51:20.886Z,13.03
2023-04-11T05:53:49.101Z,9.40
2023-04-11T05:56:17.330Z,10.90
2023-04-11T05:58:45.644Z,9.00
2023-04-11T06:01:19.142Z,13.63
2023-04-11T06:03:47.747Z,10.60
2023-04-11T06:06:16.196Z,9.70
2023-04-11T06:08:44.469Z,8.77
2023-04-11T06:11:12.748Z,11.47
2023-04-11T06:13:40.977Z,13.53
2023-04-11T06:16:09.788Z,9.20
2023-04-11T06:18:39.502Z,9.40
2023-04-11T06:21:07.889Z,12.03
2023-04-11T06:23:36.061Z,9.13
2023-04-11T06:26:04.399Z,11.20
2023-04-11T06:28:32.665Z,12.17
2023-04-11T06:31:00.947Z,10.40
2023-04-11T06:33:29.171Z,10.77
2023-04-11T06:35:58.975Z,12.47
2023-04-11T06:38:27.255Z,11.07
2023-04-11T06:40:56.464Z,9.23
2023-04-11T06:43:24.787Z,11.63
2023-04-11T06:45:53.075Z,15.33
2023-04-11T06:48:21.521Z,22.23
2023-04-11T06:50:49.756Z,15.87
2023-04-11T06:53:19.399Z,12.03
2023-04-11T06:55:49.817Z,10.73
2023-04-11T06:58:18.303Z,11.30
2023-04-11T07:00:46.495Z,7.33
2023-04-11T07:03:15.063Z,8.90
2023-04-11T07:05:43.445Z,14.20
2023-04-11T07:08:11.847Z,10.60
2023-04-11T07:10:41.556Z,9.93
2023-04-11T07:13:09.914Z,11.97
2023-04-11T07:15:38.124Z,10.37
2023-04-11T07:18:06.537Z,8.83
2023-04-11T07:20:35.625Z,11.80
2023-04-11T07:23:04.586Z,10.20
2023-04-11T07:25:33.487Z,13.13
2023-04-11T07:28:07.407Z,8.77
2023-04-11T07:30:36.679Z,12.57
2023-04-11T07:33:05.540Z,13.20
2023-04-11T07:35:34.724Z,9.17
2023-04-11T07:38:03.520Z,10.30
2023-04-11T07:40:31.931Z,9.90
2023-04-11T07:43:01.834Z,12.70
2023-04-11T07:45:31.625Z,9.70
2023-04-11T07:48:01.341Z,13.87
2023-04-11T07:50:29.638Z,16.43
2023-04-11T07:52:57.862Z,15.90
2023-04-11T07:55:26.104Z,11.40
2023-04-11T07:57:54.389Z,15.17
2023-04-11T08:00:23.921Z,15.63
2023-04-11T08:02:53.722Z,17.77
2023-04-11T08:05:22.212Z,18.93
2023-04-11T08:07:50.712Z,19.00
2023-04-11T08:10:19.066Z,21.03
2023-04-11T08:12:47.356Z,20.27
2023-04-11T08:15:15.691Z,16.37
2023-04-11T08:17:44.149Z,17.17
2023-04-11T08:20:14.426Z,27.97
2023-04-11T08:22:44.800Z,33.67
2023-04-11T08:25:14.591Z,23.83
2023-04-11T08:27:43.101Z,20.60
2023-04-11T08:30:11.941Z,21.80
2023-04-11T08:32:41.195Z,25.33
2023-04-11T08:35:10.620Z,23.00
2023-04-11T08:37:40.416Z,22.93
2023-04-11T08:40:10.219Z,23.40
2023-04-11T08:42:38.537Z,17.93
2023-04-11T08:45:08.866Z,20.60
2023-04-11T08:47:37.575Z,19.37
2023-04-11T08:50:06.681Z,15.73
2023-04-11T08:52:35.703Z,17.07
2023-04-11T08:55:06.007Z,14.87
2023-04-11T08:57:34.958Z,16.73
2023-04-11T09:00:11.248Z,14.20
2023-04-11T09:02:56.736Z,11.20
2023-04-11T09:05:29.512Z,13.13
2023-04-11T09:07:58.991Z,11.47
2023-04-11T09:10:29.299Z,12.77
2023-04-11T09:12:58.262Z,10.63
2023-04-11T09:15:31.721Z,10.93
2023-04-11T09:18:01.065Z,15.33
2023-04-11T09:20:31.229Z,14.93
2023-04-11T09:23:00.014Z,17.17
2023-04-11T09:25:29.873Z,13.07
2023-04-11T09:28:13.000Z,17.30
2023-04-11T09:30:50.631Z,12.67
2023-04-11T09:33:22.556Z,11.57
2023-04-11T09:35:52.138Z,10.43
2023-04-11T09:38:29.718Z,7.23
2023-04-11T09:41:00.828Z,9.63
2023-04-11T09:43:29.416Z,8.43
2023-04-11T09:46:10.700Z,11.60
2023-04-11T09:48:46.670Z,9.47
2023-04-11T09:51:31.805Z,8.93
2023-04-11T09:54:04.124Z,8.97
2023-04-11T09:56:35.363Z,6.70
2023-04-11T09:59:05.320Z,6.87
2023-04-11T10:01:40.256Z,5.50
2023-04-11T10:04:10.924Z,8.23
2023-04-11T10:06:45.416Z,7.10
2023-04-11T10:09:14.983Z,7.13
2023-04-11T10:11:46.120Z,9.47
2023-04-11T10:14:45.811Z,8.03
2023-04-11T10:17:20.739Z,7.30
2023-04-11T10:19:51.662Z,10.50
2023-04-11T10:22:57.576Z,8.03
2023-04-11T10:25:27.284Z,5.47
2023-04-11T10:28:01.139Z,5.27
2023-04-11T10:31:00.518Z,5.77
2023-04-11T10:33:28.865Z,8.10
2023-04-11T10:35:58.927Z,8.63
2023-04-11T10:38:48.890Z,9.07
2023-04-11T10:41:31.929Z,6.00
2023-04-11T10:44:20.929Z,6.80
2023-04-11T10:46:52.095Z,9.13
2023-04-11T10:49:34.611Z,8.65
2023-04-11T10:52:20.494Z,7.87
2023-04-11T10:54:49.214Z,5.57
2023-04-11T10:57:17.612Z,7.68
2023-04-11T11:00:00.643Z,7.93
2023-04-11T11:02:41.512Z,6.47
2023-04-11T11:05:20.669Z,7.77
2023-04-11T11:07:50.755Z,4.80
2023-04-11T11:10:37.571Z,5.53
2023-04-11T11:13:05.985Z,5.13
2023-04-11T11:15:37.959Z,7.57
2023-04-11T11:18:08.943Z,6.30
2023-04-11T11:20:37.994Z,8.67
2023-04-11T11:23:07.733Z,5.73
2023-04-11T11:25:36.205Z,8.80
2023-04-11T11:28:06.351Z,11.03
2023-04-11T11:30:37.112Z,4.27
2023-04-11T11:33:18.988Z,5.73
2023-04-11T11:35:53.210Z,5.10
2023-04-11T11:38:23.196Z,6.10
2023-04-11T11:40:52.320Z,7.73
2023-04-11T11:43:21.134Z,9.67
2023-04-11T11:46:08.817Z,4.83
2023-04-11T11:48:38.053Z,7.07
2023-04-11T11:51:07.197Z,6.37
2023-04-11T11:53:35.455Z,6.70
2023-04-11T11:56:13.988Z,6.13
2023-04-11T11:58:45.840Z,5.70
2023-04-11T12:01:17.567Z,5.47
2023-04-11T12:03:51.501Z,4.93
2023-04-11T12:06:20.645Z,7.90
2023-04-11T12:08:53.949Z,8.57
2023-04-11T12:11:22.620Z,9.13
2023-04-11T12:13:54.504Z,7.47
2023-04-11T12:16:24.771Z,8.63
2023-04-11T12:18:53.094Z,6.43
2023-04-11T12:21:21.308Z,5.13
2023-04-11T12:23:49.552Z,6.65
2023-04-11T12:26:20.068Z,5.97
2023-04-11T12:28:49.611Z,8.00
2023-04-11T12:31:18.168Z,7.45
2023-04-11T12:33:47.785Z,8.05
2023-04-11T12:36:22.962Z,6.40
2023-04-11T12:38:51.260Z,10.63
2023-04-11T12:41:32.071Z,6.50
2023-04-11T12:44:02.491Z,9.15
2023-04-11T12:46:30.974Z,9.18
2023-04-11T12:49:00.787Z,11.35
2023-04-11T12:51:29.029Z,5.25
2023-04-11T12:53:57.279Z,9.80
2023-04-11T12:56:25.527Z,5.25
2023-04-11T12:58:53.715Z,7.10
2023-04-11T13:01:23.680Z,9.15
2023-04-11T13:03:52.165Z,5.97
2023-04-11T13:06:23.356Z,5.95
2023-04-11T13:08:51.672Z,5.57
2023-04-11T13:11:19.997Z,5.75
2023-04-11T13:13:49.525Z,6.35
2023-04-11T13:16:17.869Z,13.15
2023-04-11T13:18:46.125Z,9.07
2023-04-11T13:21:14.351Z,6.93
2023-04-11T13:23:43.952Z,5.28
2023-04-11T13:26:12.268Z,4.97
2023-04-11T13:28:40.596Z,7.65
2023-04-11T13:31:10.420Z,5.78
2023-04-11T13:33:40.535Z,5.50
2023-04-11T13:36:10.093Z,6.50
2023-04-11T13:38:38.631Z,8.60
2023-04-11T13:41:08.646Z,7.38
2023-04-11T13:43:36.859Z,8.48
2023-04-11T13:46:05.680Z,5.32
2023-04-11T13:48:33.898Z,5.95
2023-04-11T13:51:02.105Z,8.88
2023-04-11T13:53:30.429Z,8.23
2023-04-11T13:55:58.645Z,6.57
2023-04-11T13:58:28.192Z,7.05
2023-04-11T14:00:56.568Z,5.65
2023-04-11T14:03:25.552Z,6.28
2023-04-11T14:05:53.869Z,5.63
2023-04-11T14:08:22.270Z,7.10
2023-04-11T14:10:50.512Z,5.00
2023-04-11T14:13:19.856Z,3.42
2023-04-11T14:16:04.927Z,9.18
2023-04-11T14:18:36.892Z,5.80
2023-04-11T14:21:06.177Z,7.78
2023-04-11T14:23:34.697Z,3.95
2023-04-11T14:26:02.924Z,4.82
2023-04-11T14:28:31.192Z,7.22
2023-04-11T14:31:00.911Z,7.97
2023-04-11T14:33:29.293Z,3.22
2023-04-11T14:35:57.655Z,3.30
2023-04-11T14:38:25.946Z,5.30
2023-04-11T14:40:54.209Z,2.90
2023-04-11T14:43:22.794Z,4.63
2023-04-11T14:45:51.068Z,7.05
2023-04-11T14:48:20.814Z,7.13
2023-04-11T14:50:49.035Z,5.65
2023-04-11T14:53:17.293Z,5.78
2023-04-11T14:55:45.598Z,5.30
2023-04-11T14:58:13.844Z,5.00
2023-04-11T15:00:42.114Z,6.20
2023-04-11T15:03:10.572Z,5.13
2023-04-11T15:05:40.385Z,6.85
2023-04-11T15:08:09.948Z,4.53
2023-04-11T15:10:38.305Z,7.30
2023-04-11T15:13:07.112Z,5.18
2023-04-11T15:15:35.651Z,6.20
2023-04-11T15:18:25.957Z,7.10
2023-04-11T15:20:56.695Z,6.75
2023-04-11T15:23:25.375Z,9.63
2023-04-11T15:25:54.815Z,4.90
2023-04-11T15:28:23.406Z,8.15
2023-04-11T15:30:52.985Z,6.57
2023-04-11T15:33:22.123Z,12.65
2023-04-11T15:35:50.727Z,5.30
2023-04-11T15:38:20.910Z,8.32
2023-04-11T15:40:50.870Z,6.80
2023-04-11T15:43:19.415Z,8.50
2023-04-11T15:45:47.861Z,14.80
2023-04-11T15:48:16.352Z,8.70
2023-04-11T15:50:45.778Z,6.70
2023-04-11T15:53:14.012Z,7.37
2023-04-11T15:55:44.647Z,7.43
2023-04-11T15:58:13.012Z,5.20
2023-04-11T16:00:43.917Z,4.40
2023-04-11T16:03:12.521Z,8.00
2023-04-11T16:05:43.378Z,7.20
2023-04-11T16:08:11.876Z,7.45
2023-04-11T16:10:40.353Z,4.35
2023-04-11T16:13:10.700Z,5.05
2023-04-11T16:15:38.971Z,5.93
2023-04-11T16:18:07.323Z,5.30
2023-04-11T16:20:35.821Z,3.97
2023-04-11T16:23:04.100Z,5.33
2023-04-11T16:25:32.654Z,5.20
2023-04-11T16:28:00.877Z,2.73
2023-04-11T16:30:30.627Z,5.40
2023-04-11T16:32:59.029Z,3.37
2023-04-11T16:35:27.506Z,7.47
2023-04-11T16:37:55.806Z,5.53
2023-04-11T16:40:24.076Z,7.20
2023-04-11T16:42:52.420Z,6.17
2023-04-11T16:45:21.265Z,8.43
2023-04-11T16:47:50.942Z,6.13
2023-04-11T16:50:19.323Z,8.10
2023-04-11T16:52:47.633Z,8.13
2023-04-11T16:55:16.830Z,6.27
2023-04-11T16:57:45.567Z,7.80
2023-04-11T17:00:17.010Z,6.00
2023-04-11T17:02:45.629Z,4.87
2023-04-11T17:05:15.579Z,5.03
2023-04-11T17:07:43.790Z,5.70
2023-04-11T17:10:12.636Z,10.30
2023-04-11T17:12:40.959Z,8.10
2023-04-11T17:15:09.764Z,9.53
2023-04-11T17:17:38.059Z,5.53
2023-04-11T17:20:09.778Z,6.10
2023-04-11T17:22:43.104Z,5.77
2023-04-11T17:25:11.521Z,5.47
2023-04-11T17:27:39.925Z,11.00
2023-04-11T17:30:09.534Z,7.10
2023-04-11T17:32:38.370Z,5.83
2023-04-11T17:35:07.454Z,8.37
2023-04-11T17:37:36.133Z,5.83
2023-04-11T17:40:12.108Z,6.73
2023-04-11T17:42:40.429Z,8.57
2023-04-11T17:45:17.561Z,6.40
2023-04-11T17:47:47.646Z,7.63
2023-04-11T17:50:16.447Z,7.27
2023-04-11T17:52:46.157Z,5.90
2023-04-11T17:55:17.569Z,5.80
2023-04-11T17:57:47.331Z,9.27
2023-04-11T18:00:21.336Z,6.17
2023-04-11T18:02:51.155Z,10.17
2023-04-11T18:05:24.316Z,7.73
2023-04-11T18:07:56.486Z,5.43
2023-04-11T18:10:27.583Z,7.70
2023-04-11T18:12:58.187Z,8.30
2023-04-11T18:15:27.137Z,7.67
2023-04-11T18:17:55.562Z,7.10
2023-04-11T18:20:24.044Z,6.73
2023-04-11T18:22:56.270Z,6.63
2023-04-11T18:25:26.162Z,11.27
2023-04-11T18:27:54.522Z,8.77
2023-04-11T18:30:22.794Z,6.90
2023-04-11T18:32:53.682Z,8.57
2023-04-11T18:35:22.690Z,6.80
2023-04-11T18:37:51.952Z,10.83
2023-04-11T18:40:20.289Z,11.77
2023-04-11T18:42:53.016Z,7.70
2023-04-11T18:45:22.386Z,5.80
2023-04-11T18:47:51.372Z,6.97
2023-04-11T18:50:19.998Z,7.87
2023-04-11T18:52:53.642Z,6.60
2023-04-11T18:55:24.508Z,9.57
2023-04-11T18:57:58.328Z,9.80
2023-04-11T19:00:29.596Z,9.37
2023-04-11T19:02:58.009Z,10.10
2023-04-11T19:05:26.892Z,6.27
2023-04-11T19:07:56.025Z,10.20
2023-04-11T19:10:24.308Z,9.23
2023-04-11T19:12:53.943Z,7.13
2023-04-11T19:15:22.401Z,7.63
2023-04-11T19:17:51.577Z,6.37
2023-04-11T19:20:20.403Z,5.80
2023-04-11T19:22:48.622Z,6.73
2023-04-11T19:25:17.043Z,8.00
2023-04-11T19:27:46.221Z,7.00
2023-04-11T19:30:16.004Z,9.30
2023-04-11T19:32:47.344Z,8.43
2023-04-11T19:35:16.138Z,5.47
2023-04-11T19:37:44.457Z,8.03
2023-04-11T19:40:13.813Z,8.07
2023-04-11T19:42:43.274Z,6.83
2023-04-11T19:45:12.420Z,9.90
2023-04-11T19:47:42.295Z,10.30
2023-04-11T19:50:12.946Z,8.83
2023-04-11T19:52:42.474Z,9.60
2023-04-11T19:55:11.596Z,6.03
2023-04-11T19:57:40.301Z,9.60
2023-04-11T20:00:14.118Z,5.47
2023-04-11T20:02:46.701Z,6.43
2023-04-11T20:05:16.339Z,6.47
2023-04-11T20:07:45.163Z,6.13
2023-04-11T20:10:14.623Z,8.83
2023-04-11T20:12:42.928Z,8.73
2023-04-11T20:15:12.113Z,9.07
2023-04-11T20:17:40.449Z,7.33
2023-04-11T20:20:12.283Z,8.17
2023-04-11T20:22:40.822Z,8.03
2023-04-11T20:25:11.618Z,6.97
2023-04-11T20:27:40.326Z,9.87
2023-04-11T20:30:10.631Z,7.00
2023-04-11T20:32:39.366Z,9.13
2023-04-11T20:35:09.996Z,7.57
2023-04-11T20:37:41.090Z,9.47
2023-04-11T20:40:11.192Z,10.83
2023-04-11T20:42:42.334Z,9.40
2023-04-11T20:45:12.961Z,10.33
2023-04-11T20:47:44.860Z,8.70
2023-04-11T20:50:15.903Z,7.80
2023-04-11T20:52:47.831Z,7.20
2023-04-11T20:55:16.183Z,7.00
2023-04-11T20:57:44.764Z,8.57
2023-04-11T21:00:14.591Z,7.93
2023-04-11T21:02:45.174Z,8.03
2023-04-11T21:05:14.175Z,8.03
2023-04-11T21:07:43.276Z,6.00
2023-04-11T21:10:13.394Z,8.60
2023-04-11T21:12:42.731Z,9.70
2023-04-11T21:15:11.905Z,14.23
2023-04-11T21:17:40.540Z,6.50
2023-04-11T21:20:17.769Z,8.10
2023-04-11T21:22:46.956Z,6.93
2023-04-11T21:25:16.968Z,9.80
2023-04-11T21:27:45.331Z,6.80
2023-04-11T21:30:14.725Z,9.77
2023-04-11T21:32:43.061Z,7.93
2023-04-11T21:35:12.573Z,9.10
2023-04-11T21:37:40.880Z,8.53
2023-04-11T21:40:10.130Z,9.10
2023-04-11T21:42:39.753Z,9.90
2023-04-11T21:45:09.611Z,7.70
2023-04-11T21:47:37.968Z,9.13
2023-04-11T21:50:07.120Z,7.83
2023-04-11T21:52:35.383Z,13.03
2023-04-11T21:55:05.894Z,9.10
2023-04-11T21:57:36.424Z,8.53
2023-04-11T22:00:08.329Z,9.23
2023-04-11T22:02:42.534Z,7.97
2023-04-11T22:05:12.692Z,7.87
2023-04-11T22:07:50.208Z,7.63
2023-04-11T22:10:22.619Z,7.13
2023-04-11T22:12:53.952Z,9.10
2023-04-11T22:15:24.202Z,7.07
2023-04-11T22:17:54.570Z,10.30
2023-04-11T22:20:23.105Z,7.67
2023-04-11T22:22:51.365Z,7.47
2023-04-11T22:25:22.286Z,12.13
2023-04-11T22:27:54.828Z,7.80
2023-04-11T22:30:24.926Z,10.50
2023-04-11T22:32:54.269Z,10.07
2023-04-11T22:35:23.555Z,10.87
2023-04-11T22:37:53.693Z,10.40
2023-04-11T22:40:23.138Z,9.30
2023-04-11T22:42:52.338Z,8.30
2023-04-11T22:45:21.304Z,12.17
2023-04-11T22:47:54.283Z,12.20
2023-04-11T22:50:23.017Z,9.93
2023-04-11T22:52:51.208Z,8.63
2023-04-11T22:55:21.058Z,8.93
2023-04-11T22:57:49.438Z,10.63
2023-04-11T23:00:19.252Z,11.20
2023-04-11T23:02:47.743Z,9.97
2023-04-11T23:05:17.793Z,9.10
2023-04-11T23:07:46.458Z,9.73
2023-04-11T23:10:15.586Z,6.53
2023-04-11T23:12:44.530Z,7.33
2023-04-11T23:15:13.302Z,7.53
2023-04-11T23:17:41.709Z,5.50
2023-04-11T23:20:13.453Z,6.93
2023-04-11T23:22:44.120Z,6.80
2023-04-11T23:25:14.058Z,7.37
2023-04-11T23:27:42.984Z,6.97
2023-04-11T23:30:12.691Z,5.13
2023-04-11T23:32:41.524Z,6.77
2023-04-11T23:35:10.937Z,4.87
2023-04-11T23:37:40.870Z,6.23
2023-04-11T23:40:13.973Z,6.87
2023-04-11T23:42:42.760Z,5.17
2023-04-11T23:45:12.739Z,6.23
2023-04-11T23:47:41.216Z,6.10
2023-04-11T23:50:10.222Z,4.90
2023-04-11T23:52:38.970Z,5.27
2023-04-11T23:55:08.473Z,4.00
2023-04-11T23:57:38.181Z,4.33
